createdAt,value
2023-04-29T00:02:19.203Z,0.52
2023-04-29T00:04:45.902Z,0.45
2023-04-29T00:07:15.478Z,0.40
2023-04-29T00:09:42.162Z,0.70
2023-04-29T00:12:10.228Z,0.50
2023-04-29T00:14:37.030Z,0.93
2023-04-29T00:17:04.117Z,0.60
2023-04-29T00:19:31.358Z,1.48
2023-04-29T00:21:57.838Z,1.20
2023-04-29T00:24:24.404Z,0.98
2023-04-29T00:26:50.880Z,1.30
2023-04-29T00:29:18.628Z,1.00
2023-04-29T00:31:45.316Z,2.25
2023-04-29T00:34:12.002Z,1.17
2023-04-29T00:36:38.540Z,1.40
2023-04-29T00:39:05.090Z,2.17
2023-04-29T00:41:32.648Z,1.00
2023-04-29T00:43:59.415Z,1.58
2023-04-29T00:46:26.010Z,0.70
2023-04-29T00:48:52.558Z,1.20
2023-04-29T00:51:19.163Z,1.33
2023-04-29T00:53:47.016Z,1.00
2023-04-29T00:56:15.896Z,0.85
2023-04-29T00:58:49.754Z,1.17
2023-04-29T01:01:16.855Z,0.75
2023-04-29T01:03:43.616Z,0.85
2023-04-29T01:06:31.697Z,0.75
2023-04-29T01:09:13.300Z,1.10
2023-04-29T01:12:01.737Z,0.50
2023-04-29T01:14:28.366Z,0.43
2023-04-29T01:17:00.642Z,0.63
2023-04-29T01:19:56.158Z,0.93
2023-04-29T01:22:23.129Z,1.52
2023-04-29T01:24:50.043Z,1.27
2023-04-29T01:27:16.602Z,1.92
2023-04-29T01:29:45.976Z,0.68
2023-04-29T01:32:24.448Z,1.80
2023-04-29T01:35:20.508Z,0.88
2023-04-29T01:37:56.345Z,1.05
2023-04-29T01:40:27.984Z,0.70
2023-04-29T01:43:08.154Z,1.13
2023-04-29T01:45:38.232Z,0.75
2023-04-29T01:50:32.695Z,0.68
2023-04-29T01:52:59.302Z,0.82
2023-04-29T01:55:26.018Z,2.00
2023-04-29T01:57:52.576Z,0.93
2023-04-29T02:00:19.174Z,0.85
2023-04-29T02:02:45.795Z,0.80
2023-04-29T02:05:12.371Z,0.70
2023-04-29T02:07:39.927Z,0.73
2023-04-29T02:10:06.989Z,1.55
2023-04-29T02:12:33.495Z,0.98
2023-04-29T02:15:00.449Z,1.30
2023-04-29T02:17:26.976Z,7.28
2023-04-29T02:19:55.180Z,11.45
2023-04-29T02:22:22.089Z,11.10
2023-04-29T02:24:48.588Z,8.52
2023-04-29T02:27:15.068Z,6.80
2023-04-29T02:29:41.682Z,2.10
2023-04-29T02:32:08.325Z,2.35
2023-04-29T02:34:34.890Z,1.23
2023-04-29T02:37:01.616Z,1.88
2023-04-29T02:39:28.220Z,1.10
2023-04-29T02:41:56.355Z,1.60
2023-04-29T02:44:22.857Z,2.63
2023-04-29T02:46:49.338Z,1.35
2023-04-29T02:49:15.894Z,1.05
2023-04-29T02:51:42.479Z,1.10
2023-04-29T02:54:08.938Z,1.00
2023-04-29T02:56:35.461Z,0.90
2023-04-29T02:59:01.933Z,1.02
2023-04-29T03:01:29.116Z,1.30
2023-04-29T03:03:55.838Z,1.20
2023-04-29T03:06:22.565Z,1.25
2023-04-29T03:08:49.072Z,0.75
2023-04-29T03:11:15.848Z,0.95
2023-04-29T03:13:42.394Z,0.70
2023-04-29T03:16:08.923Z,0.75
2023-04-29T03:18:35.461Z,0.85
2023-04-29T03:21:04.384Z,6.10
2023-04-29T03:23:30.927Z,19.48
2023-04-29T03:25:57.617Z,19.92
2023-04-29T03:28:24.187Z,17.13
2023-04-29T03:30:50.644Z,13.70
2023-04-29T03:33:17.274Z,11.23
2023-04-29T03:35:43.972Z,8.20
2023-04-29T03:38:10.468Z,7.18
2023-04-29T03:40:37.412Z,5.35
2023-04-29T03:43:03.921Z,4.18
2023-04-29T03:45:30.618Z,2.97
2023-04-29T03:47:57.142Z,3.10
2023-04-29T03:50:23.864Z,1.75
2023-04-29T03:52:50.443Z,1.85
2023-04-29T03:55:17.237Z,2.58
2023-04-29T03:57:44.091Z,2.25
2023-04-29T04:00:11.205Z,2.63
2023-04-29T04:02:37.897Z,1.55
2023-04-29T04:05:04.821Z,3.00
2023-04-29T04:07:31.351Z,2.60
2023-04-29T04:09:57.895Z,4.05
2023-04-29T04:12:24.434Z,2.13
2023-04-29T04:14:51.472Z,1.45
2023-04-29T04:17:18.040Z,4.00
2023-04-29T04:19:44.502Z,9.82
2023-04-29T04:22:12.953Z,19.42
2023-04-29T04:24:39.592Z,16.13
2023-04-29T04:27:07.123Z,15.20
2023-04-29T04:29:33.610Z,7.45
2023-04-29T04:32:00.501Z,6.43
2023-04-29T04:34:27.210Z,3.95
2023-04-29T04:36:53.685Z,4.38
2023-04-29T04:39:20.172Z,2.67
2023-04-29T04:41:46.609Z,2.10
2023-04-29T04:44:14.241Z,4.57
2023-04-29T04:46:40.755Z,2.60
2023-04-29T04:49:07.762Z,2.72
2023-04-29T04:51:34.302Z,1.10
2023-04-29T04:54:00.891Z,1.90
2023-04-29T04:56:27.445Z,2.03
2023-04-29T04:58:53.928Z,1.48
2023-04-29T05:01:20.685Z,3.33
2023-04-29T05:03:47.400Z,2.28
2023-04-29T05:06:14.088Z,3.88
2023-04-29T05:08:40.603Z,2.80
2023-04-29T05:11:07.119Z,3.00
2023-04-29T05:13:34.397Z,7.38
2023-04-29T05:16:06.210Z,13.77
2023-04-29T05:18:33.123Z,17.27
2023-04-29T05:21:00.047Z,11.13
2023-04-29T05:23:26.548Z,8.77
2023-04-29T05:25:53.142Z,8.38
2023-04-29T05:28:19.736Z,5.75
2023-04-29T05:30:47.386Z,3.75
2023-04-29T05:33:13.897Z,2.80
2023-04-29T05:35:40.422Z,1.60
2023-04-29T05:38:07.324Z,1.48
2023-04-29T05:40:33.831Z,1.02
2023-04-29T05:43:00.330Z,1.15
2023-04-29T05:45:26.838Z,2.38
2023-04-29T05:47:53.444Z,1.95
2023-04-29T05:50:19.948Z,6.07
2023-04-29T05:52:46.623Z,3.00
2023-04-29T05:55:13.188Z,3.42
2023-04-29T05:57:40.162Z,1.33
2023-04-29T06:00:07.694Z,1.40
2023-04-29T06:02:37.374Z,1.67
2023-04-29T06:05:06.733Z,2.70
2023-04-29T06:07:33.329Z,0.90
2023-04-29T06:09:59.904Z,2.42
2023-04-29T06:12:26.382Z,1.02
2023-04-29T06:14:52.897Z,0.85
2023-04-29T06:17:19.351Z,1.20
2023-04-29T06:19:45.826Z,2.03
2023-04-29T06:22:12.487Z,2.20
2023-04-29T06:24:38.974Z,1.42
2023-04-29T06:27:05.696Z,1.35
2023-04-29T06:29:32.310Z,1.92
2023-04-29T06:31:58.791Z,1.92
2023-04-29T06:34:25.338Z,3.38
2023-04-29T06:36:51.995Z,3.70
2023-04-29T06:39:18.539Z,2.70
2023-04-29T06:41:45.052Z,1.75
2023-04-29T06:44:12.082Z,2.10
2023-04-29T06:46:39.228Z,2.13
2023-04-29T06:49:07.084Z,4.07
2023-04-29T06:51:33.696Z,1.63
2023-04-29T06:54:00.202Z,1.80
2023-04-29T06:56:26.893Z,3.28
2023-04-29T06:58:53.448Z,2.67
2023-04-29T07:01:20.150Z,3.03
2023-04-29T07:03:47.010Z,2.88
2023-04-29T07:06:13.740Z,2.15
2023-04-29T07:08:40.236Z,2.33
2023-04-29T07:11:06.804Z,2.38
2023-04-29T07:13:33.518Z,1.45
2023-04-29T07:16:00.350Z,2.28
2023-04-29T07:18:26.903Z,2.75
2023-04-29T07:20:53.453Z,4.20
2023-04-29T07:23:20.068Z,1.40
2023-04-29T07:25:46.575Z,2.30
2023-04-29T07:28:13.179Z,2.17
2023-04-29T07:30:39.734Z,3.90
2023-04-29T07:33:06.399Z,1.30
2023-04-29T07:35:33.232Z,1.20
2023-04-29T07:37:59.792Z,1.15
2023-04-29T07:40:29.105Z,1.27
2023-04-29T07:42:55.750Z,1.48
2023-04-29T07:45:22.361Z,2.22
2023-04-29T07:47:48.952Z,1.17
2023-04-29T07:50:24.321Z,2.08
2023-04-29T07:56:37.884Z,3.13
2023-04-29T07:59:04.418Z,1.67
2023-04-29T08:09:52.869Z,1.42
2023-04-29T08:12:19.446Z,1.13
2023-04-29T08:14:45.946Z,1.42
2023-04-29T08:17:12.437Z,1.50
2023-04-29T08:19:38.933Z,1.25
2023-04-29T08:22:05.726Z,3.30
2023-04-29T08:24:33.719Z,3.17
2023-04-29T08:27:00.259Z,1.08
2023-04-29T08:29:26.786Z,1.88
2023-04-29T08:31:53.447Z,1.67
2023-04-29T08:34:20.038Z,1.17
2023-04-29T08:36:46.538Z,1.58
2023-04-29T08:46:55.879Z,1.42
2023-04-29T08:49:22.516Z,2.13
2023-04-29T08:51:51.620Z,2.08
2023-04-29T08:54:18.308Z,1.38
2023-04-29T08:56:49.609Z,1.83
2023-04-29T08:59:18.167Z,2.58
2023-04-29T09:01:52.875Z,2.58
2023-04-29T09:04:54.996Z,1.42
2023-04-29T09:07:22.974Z,3.83
2023-04-29T09:09:51.051Z,1.83
2023-04-29T09:12:18.612Z,2.88
2023-04-29T09:14:45.255Z,1.58
2023-04-29T09:17:11.888Z,1.00
2023-04-29T09:19:38.457Z,4.15
2023-04-29T09:22:08.224Z,1.52
2023-04-29T09:24:35.397Z,1.98
2023-04-29T09:27:03.484Z,1.35
2023-04-29T09:29:31.990Z,2.13
2023-04-29T09:31:58.925Z,1.13
2023-04-29T09:34:41.050Z,1.65
2023-04-29T09:37:28.185Z,1.25
2023-04-29T09:39:55.166Z,2.03
2023-04-29T09:42:21.728Z,2.00
2023-04-29T09:44:48.576Z,1.10
2023-04-29T09:47:15.184Z,0.88
2023-04-29T09:49:45.457Z,2.20
2023-04-29T09:52:20.875Z,0.40
2023-04-29T09:54:47.357Z,0.50
2023-04-29T09:57:15.824Z,1.15
2023-04-29T09:59:43.484Z,1.80
2023-04-29T10:02:18.700Z,1.17
2023-04-29T10:04:47.480Z,0.60
2023-04-29T10:07:16.707Z,1.25
2023-04-29T10:12:11.136Z,0.88
2023-04-29T10:14:44.713Z,0.65
2023-04-29T10:17:24.283Z,2.10
2023-04-29T10:20:08.049Z,1.45
2023-04-29T10:22:49.137Z,0.90
2023-04-29T10:25:17.218Z,1.65
2023-04-29T10:27:44.595Z,0.80
2023-04-29T10:30:16.154Z,2.15
2023-04-29T10:35:20.049Z,2.15
2023-04-29T10:37:48.848Z,0.75
2023-04-29T10:40:36.742Z,1.40
2023-04-29T10:43:04.654Z,2.22
2023-04-29T10:45:37.706Z,1.48
2023-04-29T10:48:06.907Z,0.75
2023-04-29T10:50:35.522Z,2.70
2023-04-29T10:53:03.445Z,1.08
2023-04-29T10:55:31.243Z,0.73
2023-04-29T10:57:58.157Z,2.40
2023-04-29T11:00:29.260Z,0.50
2023-04-29T11:03:00.927Z,0.65
2023-04-29T11:05:37.561Z,0.68
2023-04-29T11:08:16.445Z,1.40
2023-04-29T11:10:43.953Z,1.67
2023-04-29T11:13:30.812Z,0.75
2023-04-29T11:16:08.069Z,0.50
2023-04-29T11:18:36.552Z,1.77
2023-04-29T11:21:06.063Z,0.43
2023-04-29T11:23:36.491Z,1.27
2023-04-29T11:30:35.457Z,0.80
2023-04-29T11:33:02.200Z,1.02
2023-04-29T11:35:28.811Z,0.65
2023-04-29T11:37:55.379Z,0.93
2023-04-29T11:40:21.852Z,3.83
2023-04-29T11:42:49.737Z,0.90
2023-04-29T11:45:19.808Z,1.50
2023-04-29T11:47:47.929Z,1.67
2023-04-29T11:50:20.306Z,0.60
2023-04-29T11:52:48.457Z,0.75
2023-04-29T11:55:15.223Z,1.42
2023-04-29T11:57:41.954Z,1.45
2023-04-29T12:00:11.766Z,0.70
2023-04-29T12:02:38.459Z,1.05
2023-04-29T12:05:08.855Z,1.20
2023-04-29T12:07:37.000Z,0.55
2023-04-29T12:10:03.849Z,1.15
2023-04-29T12:12:34.896Z,0.55
2023-04-29T12:15:03.126Z,1.08
2023-04-29T12:17:30.112Z,1.10
2023-04-29T12:19:57.237Z,1.95
2023-04-29T12:22:30.837Z,0.55
2023-04-29T12:24:57.469Z,0.43
2023-04-29T12:27:24.238Z,0.63
2023-04-29T12:29:52.730Z,0.40
2023-04-29T12:32:23.172Z,1.85
2023-04-29T12:34:51.236Z,0.90
2023-04-29T12:37:18.295Z,0.98
2023-04-29T12:39:44.874Z,1.00
2023-04-29T12:42:18.191Z,0.82
2023-04-29T12:44:48.510Z,1.95
2023-04-29T12:47:16.302Z,0.40
2023-04-29T12:49:44.910Z,0.68
2023-04-29T12:54:44.834Z,1.35
2023-04-29T12:57:12.237Z,0.80
2023-04-29T12:59:40.878Z,0.68
2023-04-29T13:02:07.811Z,0.50
2023-04-29T13:04:34.630Z,0.70
2023-04-29T13:07:01.379Z,2.60
2023-04-29T13:09:28.084Z,1.35
2023-04-29T13:11:54.608Z,1.70
2023-04-29T13:14:22.332Z,1.20
2023-04-29T13:16:49.294Z,0.73
2023-04-29T13:19:30.453Z,0.93
2023-04-29T13:22:02.481Z,1.10
2023-04-29T13:24:28.972Z,2.35
2023-04-29T13:26:55.450Z,2.45
2023-04-29T13:29:21.988Z,1.15
2023-04-29T13:31:48.581Z,1.77
2023-04-29T13:34:15.209Z,1.95
2023-04-29T13:36:41.763Z,1.25
2023-04-29T13:39:08.512Z,1.63
2023-04-29T13:41:35.616Z,1.30
2023-04-29T13:44:02.676Z,1.10
2023-04-29T13:46:31.440Z,0.90
2023-04-29T13:49:17.428Z,1.42
2023-04-29T13:52:26.301Z,0.98
2023-04-29T13:57:55.265Z,0.73
2023-04-29T13:59:53.386Z,1.67
2023-04-29T14:04:49.748Z,0.65
2023-04-29T14:07:16.772Z,2.00
2023-04-29T14:09:43.364Z,0.80
2023-04-29T14:12:10.677Z,1.00
2023-04-29T14:14:37.147Z,1.02
2023-04-29T14:17:03.798Z,0.60
2023-04-29T14:19:31.434Z,0.60
2023-04-29T14:21:57.947Z,0.98
2023-04-29T14:24:24.457Z,1.15
2023-04-29T14:26:52.294Z,0.68
2023-04-29T14:29:19.207Z,0.65
2023-04-29T14:31:45.890Z,0.75
2023-04-29T14:34:13.431Z,1.15
2023-04-29T14:36:41.090Z,1.23
2023-04-29T14:39:08.452Z,0.77
2023-04-29T14:41:34.989Z,0.70
2023-04-29T14:44:01.590Z,1.40
2023-04-29T14:46:29.013Z,0.80
2023-04-29T14:48:56.145Z,1.15
2023-04-29T14:51:22.721Z,0.60
2023-04-29T14:53:49.212Z,1.00
2023-04-29T14:56:18.953Z,2.33
2023-04-29T15:01:12.103Z,1.25
2023-04-29T15:06:07.993Z,2.38
2023-04-29T15:08:34.915Z,2.92
2023-04-29T15:11:01.414Z,1.17
2023-04-29T15:13:29.392Z,1.20
2023-04-29T15:15:57.169Z,1.75
2023-04-29T15:18:26.348Z,3.42
2023-04-29T15:20:53.707Z,4.63
2023-04-29T15:23:20.416Z,2.97
2023-04-29T15:25:47.019Z,0.85
2023-04-29T15:28:13.583Z,0.80
2023-04-29T15:30:40.121Z,0.90
2023-04-29T15:33:06.728Z,1.52
2023-04-29T15:35:34.763Z,1.05
2023-04-29T15:38:01.296Z,1.35
2023-04-29T15:40:27.840Z,2.25
2023-04-29T15:42:54.383Z,1.20
2023-04-29T15:45:21.183Z,0.90
2023-04-29T15:47:47.981Z,1.00
2023-04-29T15:50:14.563Z,2.17
2023-04-29T15:52:41.082Z,1.95
2023-04-29T15:55:07.924Z,0.93
2023-04-29T15:57:34.857Z,1.10
2023-04-29T16:00:01.555Z,1.63
2023-04-29T16:02:28.322Z,0.73
2023-04-29T16:04:54.843Z,2.00
2023-04-29T16:07:21.328Z,1.10
2023-04-29T16:09:47.883Z,1.20
2023-04-29T16:12:14.442Z,1.08
2023-04-29T16:14:41.150Z,0.90
2023-04-29T16:17:08.079Z,1.08
2023-04-29T16:19:36.835Z,1.42
2023-04-29T16:22:04.420Z,3.93
2023-04-29T16:24:30.983Z,1.58
2023-04-29T16:26:58.885Z,2.30
2023-04-29T16:29:25.871Z,1.20
2023-04-29T16:31:52.505Z,4.88
2023-04-29T16:34:19.994Z,1.45
2023-04-29T16:36:46.535Z,1.13
2023-04-29T16:39:13.061Z,1.23
2023-04-29T16:41:39.577Z,1.00
2023-04-29T16:44:06.103Z,1.10
2023-04-29T16:46:32.757Z,0.90
2023-04-29T16:48:59.524Z,1.17
2023-04-29T16:51:26.485Z,1.13
2023-04-29T16:53:53.505Z,1.38
2023-04-29T16:56:20.104Z,1.20
2023-04-29T16:58:46.585Z,1.38
2023-04-29T17:01:13.170Z,1.10
2023-04-29T17:03:39.827Z,1.02
2023-04-29T17:06:06.520Z,1.08
2023-04-29T17:08:33.132Z,1.30
2023-04-29T17:10:59.658Z,1.10
2023-04-29T17:13:26.414Z,1.20
2023-04-29T17:15:52.983Z,1.45
2023-04-29T17:18:20.203Z,3.03
2023-04-29T17:20:48.677Z,1.25
2023-04-29T17:26:29.260Z,1.73
2023-04-29T17:28:55.755Z,1.50
2023-04-29T17:31:25.477Z,1.85
2023-04-29T17:34:04.995Z,1.50
2023-04-29T17:36:33.092Z,1.05
2023-04-29T17:38:59.748Z,1.13
2023-04-29T17:41:26.266Z,1.67
2023-04-29T17:43:52.782Z,2.22
2023-04-29T17:54:18.594Z,1.38
2023-04-29T17:56:45.165Z,2.97
2023-04-29T17:59:11.881Z,2.00
2023-04-29T18:01:38.683Z,1.27
2023-04-29T18:04:06.151Z,1.40
2023-04-29T18:06:32.983Z,2.53
2023-04-29T18:08:59.517Z,1.05
2023-04-29T18:11:26.138Z,1.27
2023-04-29T18:13:54.165Z,1.77
2023-04-29T18:16:20.927Z,2.30
2023-04-29T18:18:47.436Z,2.53
2023-04-29T18:28:23.065Z,2.50
2023-04-29T18:30:51.767Z,1.50
2023-04-29T18:33:18.489Z,1.70
2023-04-29T18:35:45.100Z,4.68
2023-04-29T18:38:14.208Z,2.58
2023-04-29T18:40:41.160Z,1.73
2023-04-29T19:23:35.966Z,2.33
2023-04-29T19:26:02.458Z,2.60
2023-04-29T19:28:29.024Z,3.47
2023-04-29T19:30:55.550Z,2.10
2023-04-29T19:33:22.119Z,8.77
2023-04-29T19:35:48.587Z,1.52
2023-04-29T19:38:15.145Z,1.50
2023-04-29T19:40:41.668Z,1.65
2023-04-29T19:43:09.146Z,5.22
2023-04-29T19:50:15.678Z,1.83
2023-04-29T19:52:42.244Z,1.92
2023-04-29T19:58:56.932Z,2.05
2023-04-29T20:01:32.910Z,1.75
2023-04-29T20:03:59.523Z,2.47
2023-04-29T20:06:27.192Z,1.80
2023-04-29T20:08:53.875Z,4.05
2023-04-29T20:11:21.091Z,3.55
2023-04-29T20:14:18.171Z,1.40
2023-04-29T20:17:03.247Z,1.50
2023-04-29T20:23:30.674Z,3.63
2023-04-29T20:29:06.472Z,2.85
2023-04-29T20:31:33.168Z,3.65
2023-04-29T20:41:40.626Z,1.55
2023-04-29T20:44:07.729Z,2.83
2023-04-29T20:46:36.619Z,1.98
2023-04-29T21:25:59.568Z,3.92
2023-04-29T21:28:26.112Z,2.08
2023-04-29T21:30:54.864Z,2.20
2023-04-29T22:14:55.457Z,2.67
2023-04-29T22:20:12.808Z,3.78
2023-04-29T22:22:39.872Z,2.85
2023-04-29T22:25:19.797Z,2.55
2023-04-29T22:28:02.417Z,2.30
2023-04-29T22:30:56.861Z,3.80
2023-04-29T22:33:42.497Z,2.13
2023-04-29T22:44:23.863Z,4.00
2023-04-29T22:47:15.300Z,3.03
2023-04-29T22:49:41.953Z,4.43
2023-04-29T22:52:54.134Z,3.95
2023-04-29T22:58:43.772Z,4.90
2023-04-29T23:01:11.977Z,2.78
2023-04-29T23:13:41.768Z,4.50
2023-04-29T23:16:10.720Z,3.28
2023-04-29T23:19:14.444Z,3.70
2023-04-29T23:24:55.371Z,3.60
2023-04-29T23:27:29.418Z,2.70
2023-04-29T23:29:56.212Z,7.50
2023-04-29T23:32:24.431Z,3.10
2023-04-29T23:34:50.968Z,4.22
2023-04-29T23:37:17.601Z,5.57
2023-04-29T23:39:44.291Z,3.38
2023-04-29T23:42:10.952Z,4.45
2023-04-29T23:44:41.631Z,2.40
2023-04-29T23:50:32.742Z,2.30
2023-04-29T23:52:59.357Z,2.88
2023-04-29T23:55:29.390Z,2.80
